Erda, Utah
Current Conditions -  °F | °C
As of 12:53 AM on Tuesday 21 Oct 2014 (Local Time) from KSLC Reporting Station
Scattered Clouds Scattered Clouds  
Wind Chill: 64°   Ceiling: Unl
Heat Index: 64°   Visibility: 10mi
Dew Point: 40°   Wind: 10mph
Humidity: 41%   Direction: 140°SE
Pressure: 29.9"   Gusts: NA
Location:  40.5393°N, 112.353°W
Report Text: KSLC 210653Z 14009KT 10SM FEW110 SCT120 18/04 A2990 RMK AO2 SLP077 T01780044 402610089
Loading
Personal Weather Stations






























Interactive Weather Map
Tropical Storm Tracking
New forecast layout! Learn more

10-Day Weather Forecast

Advertisements
Track Severe Weather on mobile